KLFK/LFK METAR and TAF weather

Enter ICAO airport designator
Station Type Date Time Source
KLFK METAR 2020/06/03 22:53 UTC NOAA

KLFK 032253Z AUTO 17004KT 10SM BKN050 BKN060 33/20 A2988 RMK AO2 LTG DSNT W SLP115 T03280200


Station Type Date Time Source
KLFK Decoded METAR 2020/06/03 22:53 UTC NOAA

LUFKIN ANGELINA COUNTY AIRPORT , TX, United States (KLFK) 31-14N 94-45W 88M
Jun 03, 2020 - 06:53 PM EDT / 2020.06.03 2253 UTC
Wind: from the S (170 degrees) at 5 MPH (4 KT):0
Visibility: 10 mile(s):0
Sky conditions: mostly cloudy
Weather: Lightning observed
Temperature: 91.0 F (32.8 C)
Heat index: 94.6 F (34.8 C):1
Dew Point: 68.0 F (20.0 C)
Relative Humidity: 46%
Pressure (altimeter): 29.88 in. Hg (1011 hPa)
ob: KLFK 032253Z AUTO 17004KT 10SM BKN050 BKN060 33/20 A2988 RMK AO2 LTG DSNT W SLP115 T03280200
cycle: 23

Station Type Date Time Source
KLFK TAF 2020/06/03 18:39 UTC NOAA

TAF KLFK 031737Z 0318/0418 17005KT P6SM VCTS BKN050CB BKN120
FM040100 15003KT P6SM FEW050 SCT100 BKN150
FM041500 18004KT P6SM SCT250

Example: see airport list